ETSI

Ingolstadt Manching Airport

Manching, Germany
METAR ETSI 181620Z 04003KT 9999 SCT050 SCT350 17/09 Q1019 BLU+BLU+
Observed Flight Rules
Oct-18 @ 16:20 UTC (14 minutes ago) Visual Flight Rules
Wind Visibility Clouds
40° at 3 knots 10,000+ meters
  • Scattered at 5,000' AGL
  • Scattered at 35,000' AGL
Temperatures Readings
Current 17°C / 63°F
Dewpoint 9°C / 48°F
Humidity 59%
Altimeter 30.09" Hg
Pressure 1019 hPa
Elevation 370
METAR ETSI 181620Z 04003KT 9999 SCT050 SCT350 17/09 Q1019 BLU+BLU+
Observed Flight Rules
Oct-18 @ 16:20 UTC
(14 minutes ago)
VFR
Wind Visibility
40° at 3 knots 10,000+ meters
Clouds
  • Scattered at 5,000' AGL
  • Scattered at 35,000' AGL
Temperature Dewpoint
17°C / 63°F 9°C / 48°F
Humidity Altimeter Pressure
59% 30.09" Hg 1019 hPa